createdAt,value
2022-07-25T00:00:22.839Z,95171.38
2022-07-25T00:02:51.262Z,95169.63
2022-07-25T00:05:19.807Z,95172.16
2022-07-25T00:07:47.882Z,95166.81
2022-07-25T00:10:17.289Z,95171.53
2022-07-25T00:12:45.422Z,95165.69
2022-07-25T00:15:14.040Z,95164.59
2022-07-25T00:17:42.273Z,95167.91
2022-07-25T00:20:10.930Z,95163.84
2022-07-25T00:22:38.880Z,95155.53
2022-07-25T00:25:07.741Z,95149.41
2022-07-25T00:27:37.106Z,95160.88
2022-07-25T00:30:06.567Z,95150.19
2022-07-25T00:32:34.523Z,95144.22
2022-07-25T00:35:02.519Z,95141.38
2022-07-25T00:37:30.529Z,95148.94
2022-07-25T00:39:58.616Z,95142.47
2022-07-25T00:42:26.560Z,95145.34
2022-07-25T00:44:56.252Z,95144.69
2022-07-25T00:47:24.312Z,95145.66
2022-07-25T00:49:52.333Z,95140.78
2022-07-25T00:52:20.829Z,95129.91
2022-07-25T00:54:48.948Z,95137.47
2022-07-25T00:57:17.091Z,95135.91
2022-07-25T00:59:45.066Z,95141.56
2022-07-25T01:02:14.470Z,95145.97
2022-07-25T01:04:42.570Z,95133.69
2022-07-25T01:07:10.589Z,95136.22
2022-07-25T01:09:39.055Z,95133.53
2022-07-25T01:12:07.304Z,95142.66
2022-07-25T01:14:39.668Z,95138.56
2022-07-25T01:17:07.636Z,95142.81
2022-07-25T01:19:37.178Z,95135.25
2022-07-25T01:22:06.679Z,95137.91
2022-07-25T01:24:35.290Z,95136.34
2022-07-25T01:27:03.408Z,95133.84
2022-07-25T01:29:31.371Z,95131.34
2022-07-25T01:31:59.519Z,95130.88
2022-07-25T01:34:27.466Z,95123.47
2022-07-25T01:36:55.465Z,95129.16
2022-07-25T01:39:24.808Z,95128.50
2022-07-25T01:41:52.799Z,95132.44
2022-07-25T01:44:20.778Z,95134.78
2022-07-25T01:46:48.807Z,95133.22
2022-07-25T01:49:16.970Z,95123.13
2022-07-25T01:51:45.075Z,95123.63
2022-07-25T01:54:13.087Z,95121.41
2022-07-25T01:56:48.290Z,95125.03
2022-07-25T01:59:16.792Z,95125.03
2022-07-25T02:01:44.985Z,95121.25
2022-07-25T02:04:13.287Z,95115.91
2022-07-25T02:06:41.871Z,95121.25
2022-07-25T02:09:10.726Z,95121.25
2022-07-25T02:11:38.740Z,95122.97
2022-07-25T02:14:08.749Z,95122.81
2022-07-25T02:16:36.901Z,95119.69
2022-07-25T02:19:05.454Z,95122.19
2022-07-25T02:21:33.495Z,95123.78
2022-07-25T02:24:01.536Z,95119.69
2022-07-25T02:26:29.567Z,95123.94
2022-07-25T02:28:57.558Z,95129.75
2022-07-25T02:31:27.002Z,95124.25
2022-07-25T02:33:55.040Z,95123.47
2022-07-25T02:36:23.381Z,95125.66
2022-07-25T02:38:52.459Z,95128.31
2022-07-25T02:41:20.443Z,95134.00
2022-07-25T02:43:48.428Z,95128.50
2022-07-25T02:46:16.854Z,95123.94
2022-07-25T02:48:46.503Z,95120.47
2022-07-25T02:51:14.623Z,95132.03
2022-07-25T02:53:58.859Z,95128.13
2022-07-25T02:56:30.061Z,95128.75
2022-07-25T02:58:59.917Z,95128.75
2022-07-25T03:01:28.324Z,95127.78
2022-07-25T03:03:57.849Z,95122.59
2022-07-25T03:06:25.866Z,95126.84
2022-07-25T03:08:54.030Z,95118.38
2022-07-25T03:11:22.271Z,95121.16
2022-07-25T03:13:50.342Z,95121.16
2022-07-25T03:16:18.403Z,95124.59
2022-07-25T03:18:46.962Z,95121.47
2022-07-25T03:21:16.325Z,95119.72
2022-07-25T03:23:47.892Z,95125.84
2022-07-25T03:26:18.468Z,95123.19
2022-07-25T03:28:46.449Z,95122.09
2022-07-25T03:31:14.408Z,95125.22
2022-07-25T03:33:42.406Z,95116.13
2022-07-25T03:36:10.681Z,95118.31
2022-07-25T03:38:40.389Z,95109.06
2022-07-25T03:41:08.361Z,95109.84
2022-07-25T03:43:36.494Z,95104.50
2022-07-25T03:46:04.967Z,95109.22
2022-07-25T03:48:33.047Z,95094.91
2022-07-25T03:51:06.459Z,95104.78
2022-07-25T03:53:55.115Z,95097.22
2022-07-25T03:56:24.471Z,95100.88
2022-07-25T03:58:52.529Z,95102.34
2022-07-25T04:01:20.864Z,95107.06
2022-07-25T04:03:50.189Z,95109.19
2022-07-25T04:06:18.707Z,95112.13
2022-07-25T04:08:46.885Z,95115.31
2022-07-25T04:11:16.228Z,95120.63
2022-07-25T04:13:45.741Z,95121.22
2022-07-25T04:16:18.432Z,95116.88
2022-07-25T04:18:51.673Z,95121.22
2022-07-25T04:21:19.850Z,95124.97
2022-07-25T04:23:47.910Z,95126.22
2022-07-25T04:26:16.458Z,95117.75
2022-07-25T04:28:46.010Z,95123.25
2022-07-25T04:31:14.057Z,95124.38
2022-07-25T04:33:42.617Z,95124.13
2022-07-25T04:36:11.249Z,95131.38
2022-07-25T04:38:39.235Z,95123.28
2022-07-25T04:41:07.601Z,95118.88
2022-07-25T04:43:35.617Z,95117.16
2022-07-25T04:46:05.159Z,95119.03
2022-07-25T04:48:33.378Z,95122.34
2022-07-25T04:51:01.656Z,95126.63
2022-07-25T04:53:29.785Z,95121.47
2022-07-25T04:55:57.927Z,95123.19
2022-07-25T04:58:26.000Z,95123.84
2022-07-25T05:00:53.996Z,95121.78
2022-07-25T05:03:23.343Z,95119.88
2022-07-25T05:05:51.489Z,95110.78
2022-07-25T05:08:19.533Z,95113.94
2022-07-25T05:10:47.539Z,95118.16
2022-07-25T05:13:15.583Z,95117.69
2022-07-25T05:15:44.330Z,95115.50
2022-07-25T05:18:12.302Z,95110.16
2022-07-25T05:20:41.811Z,95123.34
2022-07-25T05:23:09.853Z,95113.94
2022-07-25T05:25:37.885Z,95113.53
2022-07-25T05:28:06.338Z,95118.88
2022-07-25T05:30:39.631Z,95110.28
2022-07-25T05:33:08.077Z,95120.78
2022-07-25T05:35:36.110Z,95119.22
2022-07-25T05:38:06.589Z,95120.16
2022-07-25T05:40:34.754Z,95105.91
2022-07-25T05:43:03.651Z,95119.25
2022-07-25T05:45:32.053Z,95117.38
2022-07-25T05:48:00.007Z,95116.13
2022-07-25T05:50:28.068Z,95120.06
2022-07-25T05:52:56.025Z,95127.53
2022-07-25T05:55:25.370Z,95119.63
2022-07-25T05:57:53.388Z,95120.72
2022-07-25T06:00:21.407Z,95112.13
2022-07-25T06:02:49.663Z,95117.69
2022-07-25T06:05:17.867Z,95121.34
2022-07-25T06:07:45.914Z,95108.94
2022-07-25T06:10:13.953Z,95113.50
2022-07-25T06:12:43.310Z,95116.22
2022-07-25T06:15:12.650Z,95117.81
2022-07-25T06:17:50.902Z,95116.69
2022-07-25T06:20:18.913Z,95120.47
2022-07-25T06:22:46.891Z,95114.88
2022-07-25T06:25:15.105Z,95118.59
2022-07-25T06:27:45.050Z,95118.31
2022-07-25T06:30:19.739Z,95116.28
2022-07-25T06:32:48.852Z,95114.13
2022-07-25T06:35:16.910Z,95107.69
2022-07-25T06:37:45.018Z,95107.09
2022-07-25T06:40:13.417Z,95115.44
2022-07-25T06:42:42.885Z,95114.66
2022-07-25T06:45:14.565Z,95119.06
2022-07-25T06:47:43.790Z,95109.94
2022-07-25T06:50:14.218Z,95115.44
2022-07-25T06:52:43.186Z,95113.38
2022-07-25T06:55:12.734Z,95112.88
2022-07-25T06:57:41.154Z,95112.56
2022-07-25T07:00:14.459Z,95112.41
2022-07-25T07:02:53.538Z,95111.38
2022-07-25T07:05:22.142Z,95116.84
2022-07-25T07:07:50.146Z,95121.25
2022-07-25T07:10:19.043Z,95124.09
2022-07-25T07:12:47.393Z,95118.09
2022-07-25T07:15:17.602Z,95123.78
2022-07-25T07:17:45.571Z,95121.84
2022-07-25T07:20:13.835Z,95117.06
2022-07-25T07:22:46.250Z,95113.13
2022-07-25T07:25:16.402Z,95120.94
2022-07-25T07:27:46.037Z,95114.63
2022-07-25T07:30:16.837Z,95115.06
2022-07-25T07:32:49.047Z,95127.81
2022-07-25T07:35:19.142Z,95117.38
2022-07-25T07:37:47.693Z,95119.97
2022-07-25T07:40:18.158Z,95122.19
2022-07-25T07:42:47.721Z,95123.91
2022-07-25T07:45:17.284Z,95117.16
2022-07-25T07:47:48.018Z,95115.34
2022-07-25T07:50:18.632Z,95117.56
2022-07-25T07:52:47.558Z,95113.13
2022-07-25T07:55:33.674Z,95118.59
2022-07-25T07:58:02.493Z,95121.63
2022-07-25T08:00:31.547Z,95119.38
2022-07-25T08:03:00.455Z,95120.28
2022-07-25T08:05:32.631Z,95120.28
2022-07-25T08:08:01.904Z,95119.50
2022-07-25T08:10:31.643Z,95119.22
2022-07-25T08:13:00.376Z,95119.91
2022-07-25T08:15:28.426Z,95127.72
2022-07-25T08:17:56.572Z,95120.13
2022-07-25T08:20:39.863Z,95122.88
2022-07-25T08:23:11.047Z,95125.56
2022-07-25T08:25:39.375Z,95126.06
2022-07-25T08:28:07.561Z,95126.72
2022-07-25T08:30:36.838Z,95126.06
2022-07-25T08:33:06.808Z,95122.91
2022-07-25T08:35:35.948Z,95122.75
2022-07-25T08:38:05.716Z,95118.72
2022-07-25T08:40:35.760Z,95118.72
2022-07-25T08:43:04.440Z,95121.97
2022-07-25T08:45:34.241Z,95123.66
2022-07-25T08:48:02.294Z,95122.75
2022-07-25T08:50:31.346Z,95115.38
2022-07-25T08:53:30.250Z,95118.25
2022-07-25T08:55:49.431Z,95121.13
2022-07-25T08:58:18.914Z,95132.06
2022-07-25T09:00:47.864Z,95127.84
2022-07-25T09:03:16.041Z,95121.44
2022-07-25T09:05:45.331Z,95124.88
2022-07-25T09:08:14.623Z,95128.00
2022-07-25T09:10:50.294Z,95125.75
2022-07-25T09:13:19.279Z,95135.81
2022-07-25T09:15:49.527Z,95138.97
2022-07-25T09:18:19.980Z,95137.09
2022-07-25T09:20:50.937Z,95138.81
2022-07-25T09:23:29.734Z,95146.38
2022-07-25T09:26:05.300Z,95139.00
2022-07-25T09:28:40.442Z,95137.88
2022-07-25T09:31:09.840Z,95147.28
2022-07-25T09:33:47.835Z,95148.84
2022-07-25T09:36:16.206Z,95137.47
2022-07-25T09:38:53.017Z,95135.38
2022-07-25T09:41:23.123Z,95139.28
2022-07-25T09:43:51.124Z,95134.00
2022-07-25T09:46:19.172Z,95144.16
2022-07-25T09:48:57.747Z,95135.03
2022-07-25T09:51:26.428Z,95146.59
2022-07-25T09:53:54.427Z,95139.47
2022-07-25T09:56:23.930Z,95133.53
2022-07-25T09:58:52.888Z,95138.19
2022-07-25T10:01:26.551Z,95132.28
2022-07-25T10:04:16.477Z,95138.69
2022-07-25T10:06:51.588Z,95132.78
2022-07-25T10:09:19.750Z,95125.19
2022-07-25T10:12:09.652Z,95130.38
2022-07-25T10:14:39.163Z,95129.13
2022-07-25T10:17:07.905Z,95127.00
2022-07-25T10:19:49.241Z,95121.19
2022-07-25T10:22:34.425Z,95112.94
2022-07-25T10:25:13.761Z,95109.97
2022-07-25T10:27:48.786Z,95099.31
2022-07-25T10:30:23.963Z,95102.31
2022-07-25T10:32:56.769Z,95094.47
2022-07-25T10:35:25.844Z,95095.00
2022-07-25T10:37:55.052Z,95099.84
2022-07-25T10:40:31.230Z,95094.06
2022-07-25T10:43:07.933Z,95079.78
2022-07-25T10:45:41.190Z,95087.69
2022-07-25T10:48:11.658Z,95088.06
2022-07-25T10:50:56.566Z,95087.97
2022-07-25T10:53:34.378Z,95079.34
2022-07-25T10:56:08.211Z,95081.44
2022-07-25T10:58:49.017Z,95075.22
2022-07-25T11:01:23.000Z,95073.66
2022-07-25T11:03:51.978Z,95069.09
2022-07-25T11:06:31.823Z,95065.19
2022-07-25T11:09:01.226Z,95064.06
2022-07-25T11:11:38.203Z,95062.72
2022-07-25T11:14:16.454Z,95065.94
2022-07-25T11:16:45.074Z,95061.34
2022-07-25T11:19:24.077Z,95049.88
2022-07-25T11:21:54.691Z,95056.19
2022-07-25T11:24:23.580Z,95052.44
2022-07-25T11:26:53.296Z,95049.09
2022-07-25T11:29:26.917Z,95043.31
2022-07-25T11:31:57.114Z,95037.34
2022-07-25T11:34:27.833Z,95038.69
2022-07-25T11:36:58.802Z,95025.75
2022-07-25T11:39:28.987Z,95025.91
2022-07-25T11:42:01.768Z,95019.66
2022-07-25T11:44:36.317Z,95019.97
2022-07-25T11:47:06.018Z,95018.66
2022-07-25T11:49:45.517Z,95020.19
2022-07-25T11:52:21.523Z,95004.00
2022-07-25T11:54:58.097Z,94996.41
2022-07-25T11:57:27.478Z,94997.28
2022-07-25T11:59:57.768Z,95002.06
2022-07-25T12:02:27.339Z,95001.53
2022-07-25T12:04:57.660Z,94992.16
2022-07-25T12:07:40.005Z,94996.22
2022-07-25T12:10:10.476Z,95005.28
2022-07-25T12:12:52.033Z,94991.22
2022-07-25T12:15:23.665Z,94988.75
2022-07-25T12:17:53.240Z,94982.53
2022-07-25T12:20:23.487Z,94994.84
2022-07-25T12:22:53.194Z,94992.03
2022-07-25T12:25:21.725Z,94990.66
2022-07-25T12:27:50.042Z,94983.59
2022-07-25T12:30:18.354Z,94989.63
2022-07-25T12:32:47.792Z,94992.69
2022-07-25T12:35:15.873Z,94991.88
2022-07-25T12:37:44.633Z,94993.00
2022-07-25T12:40:14.531Z,94984.06
2022-07-25T12:42:42.787Z,94992.50
2022-07-25T12:45:12.060Z,94987.78
2022-07-25T12:47:40.228Z,94990.81
2022-07-25T12:50:10.561Z,94979.28
2022-07-25T12:52:39.222Z,94982.81
2022-07-25T12:55:08.633Z,94980.19
2022-07-25T12:57:37.381Z,94977.13
2022-07-25T13:00:06.162Z,94972.44
2022-07-25T13:02:34.297Z,94976.28
2022-07-25T13:05:02.287Z,94965.16
2022-07-25T13:07:31.940Z,94966.31
2022-07-25T13:10:00.842Z,94959.34
2022-07-25T13:12:29.065Z,94958.47
2022-07-25T13:14:57.245Z,94965.34
2022-07-25T13:17:27.663Z,94972.16
2022-07-25T13:19:56.909Z,94967.28
2022-07-25T13:22:25.219Z,94972.63
2022-07-25T13:24:55.277Z,94972.63
2022-07-25T13:27:24.581Z,94974.81
2022-07-25T13:29:54.856Z,94970.56
2022-07-25T13:32:23.967Z,94968.56
2022-07-25T13:34:52.022Z,94967.00
2022-07-25T13:37:20.020Z,94955.50
2022-07-25T13:39:47.984Z,94966.31
2022-07-25T13:42:17.624Z,94961.75
2022-07-25T13:44:45.553Z,94957.50
2022-07-25T13:47:13.627Z,94976.81
2022-07-25T13:49:41.782Z,94955.66
2022-07-25T13:52:09.831Z,94954.94
2022-07-25T13:54:37.919Z,94955.66
2022-07-25T13:57:06.043Z,94954.78
2022-07-25T13:59:35.486Z,94953.22
2022-07-25T14:02:03.591Z,94950.13
2022-07-25T14:04:32.041Z,94958.50
2022-07-25T14:07:01.769Z,94944.56
2022-07-25T14:09:29.761Z,94956.09
2022-07-25T14:11:58.097Z,94949.09
2022-07-25T14:14:26.161Z,94946.75
2022-07-25T14:16:55.714Z,94952.09
2022-07-25T14:19:24.199Z,94938.09
2022-07-25T14:21:52.267Z,94936.31
2022-07-25T14:24:20.238Z,94942.13
2022-07-25T14:26:49.187Z,94939.78
2022-07-25T14:29:17.170Z,94945.91
2022-07-25T14:31:45.301Z,94946.59
2022-07-25T14:34:15.669Z,94947.31
2022-07-25T14:36:44.828Z,94950.31
2022-07-25T14:39:12.853Z,94946.47
2022-07-25T14:41:40.827Z,94948.03
2022-07-25T14:44:09.557Z,94951.88
2022-07-25T14:46:37.692Z,94948.03
2022-07-25T14:49:06.101Z,94954.88
2022-07-25T14:51:35.656Z,94952.03
2022-07-25T14:54:03.678Z,94947.78
2022-07-25T14:56:31.692Z,94955.19
2022-07-25T14:58:59.995Z,94953.31
2022-07-25T15:01:28.035Z,94957.16
2022-07-25T15:03:57.177Z,94957.88
2022-07-25T15:06:29.000Z,94957.16
2022-07-25T15:08:59.003Z,94958.72
2022-07-25T15:11:27.065Z,94961.09
2022-07-25T15:13:55.107Z,94949.59
2022-07-25T15:16:23.382Z,94958.13
2022-07-25T15:19:15.371Z,94956.56
2022-07-25T15:21:39.978Z,94945.03
2022-07-25T15:24:09.544Z,94947.47
2022-07-25T15:26:38.060Z,94948.31
2022-07-25T15:29:09.788Z,94948.47
2022-07-25T15:31:38.537Z,94948.38
2022-07-25T15:34:06.572Z,94936.31
2022-07-25T15:36:34.608Z,94939.28
2022-07-25T15:39:02.851Z,94939.72
2022-07-25T15:41:33.028Z,94944.03
2022-07-25T15:44:01.047Z,94942.28
2022-07-25T15:46:29.271Z,94941.00
2022-07-25T15:48:58.577Z,94933.22
2022-07-25T15:51:26.676Z,94935.13
2022-07-25T15:53:54.673Z,94937.34
2022-07-25T15:56:22.706Z,94934.50
2022-07-25T15:58:52.172Z,94927.28
2022-07-25T16:01:20.341Z,94941.47
2022-07-25T16:03:48.530Z,94929.84
2022-07-25T16:06:20.626Z,94929.88
2022-07-25T16:08:50.170Z,94932.94
2022-07-25T16:11:24.896Z,94930.53
2022-07-25T16:13:54.780Z,94934.25
2022-07-25T16:16:23.016Z,94936.66
2022-07-25T16:18:51.199Z,94941.47
2022-07-25T16:21:19.299Z,94940.53
2022-07-25T16:23:47.710Z,94938.81
2022-07-25T16:26:15.810Z,94943.19
2022-07-25T16:28:45.275Z,94942.41
2022-07-25T16:31:14.740Z,94945.88
2022-07-25T16:33:42.817Z,94947.16
2022-07-25T16:36:12.235Z,94944.91
2022-07-25T16:38:40.549Z,94951.59
2022-07-25T16:41:08.570Z,94958.38
2022-07-25T16:43:36.550Z,94952.34
2022-07-25T16:46:04.762Z,94951.28
2022-07-25T16:48:34.709Z,94948.09
2022-07-25T16:51:02.757Z,94948.81
2022-07-25T16:53:32.679Z,94950.47
2022-07-25T16:56:00.745Z,94944.94
2022-07-25T16:58:28.907Z,94955.69
2022-07-25T17:00:56.894Z,94954.44
2022-07-25T17:03:24.974Z,94959.44
2022-07-25T17:05:54.706Z,94967.03
2022-07-25T17:08:22.700Z,94959.16
2022-07-25T17:10:50.761Z,94965.59
2022-07-25T17:13:18.793Z,94945.25
2022-07-25T17:15:46.924Z,94951.97
2022-07-25T17:18:15.287Z,94950.69
2022-07-25T17:20:43.507Z,94958.34
2022-07-25T17:23:12.969Z,94949.34
2022-07-25T17:25:41.176Z,94950.34
2022-07-25T17:28:09.437Z,94949.38
2022-07-25T17:30:37.445Z,94955.72
2022-07-25T17:33:05.595Z,94951.72
2022-07-25T17:35:33.923Z,94954.69
2022-07-25T17:38:02.466Z,94949.59
2022-07-25T17:40:31.891Z,94948.63
2022-07-25T17:43:00.024Z,94949.31
2022-07-25T17:45:28.002Z,94944.66
2022-07-25T17:47:56.049Z,94941.53
2022-07-25T17:50:29.152Z,94943.78
2022-07-25T17:52:59.708Z,94940.97
2022-07-25T17:55:28.740Z,94936.53
2022-07-25T17:57:59.713Z,94927.19
2022-07-25T18:00:28.505Z,94932.16
2022-07-25T18:02:56.790Z,94939.81
2022-07-25T18:05:25.139Z,94948.44
2022-07-25T18:07:53.944Z,94942.88
2022-07-25T18:10:22.840Z,94948.44
2022-07-25T18:12:51.462Z,94946.16
2022-07-25T18:15:20.896Z,94959.22
2022-07-25T18:17:49.511Z,94957.31
2022-07-25T18:20:17.933Z,94958.63
2022-07-25T18:22:46.453Z,94953.50
2022-07-25T18:25:16.233Z,94958.03
2022-07-25T18:27:45.262Z,94964.97
2022-07-25T18:30:14.942Z,94967.06
2022-07-25T18:32:45.656Z,94968.00
2022-07-25T18:35:14.400Z,94970.03
2022-07-25T18:37:43.639Z,94967.94
2022-07-25T18:40:12.448Z,94971.06
2022-07-25T18:42:40.598Z,94964.09
2022-07-25T18:45:09.895Z,94963.25
2022-07-25T18:47:38.414Z,94967.66
2022-07-25T18:50:08.804Z,94975.56
2022-07-25T18:52:37.498Z,94976.28
2022-07-25T18:55:07.297Z,94974.66
2022-07-25T18:57:35.696Z,94974.19
2022-07-25T19:00:04.317Z,94968.97
2022-07-25T19:02:32.275Z,94969.59
2022-07-25T19:05:00.416Z,94972.44
2022-07-25T19:07:31.328Z,94971.66
2022-07-25T19:09:59.499Z,94982.97
2022-07-25T19:12:27.523Z,94991.94
2022-07-25T19:14:56.423Z,95001.38
2022-07-25T19:17:24.727Z,95008.84
2022-07-25T19:19:53.259Z,95009.22
2022-07-25T19:22:21.254Z,95013.28
2022-07-25T19:24:50.609Z,95015.97
2022-07-25T19:27:19.413Z,95020.88
2022-07-25T19:29:47.883Z,95017.97
2022-07-25T19:32:16.262Z,95024.03
2022-07-25T19:34:46.567Z,95035.88
2022-07-25T19:37:14.554Z,95044.59
2022-07-25T19:39:42.514Z,95051.53
2022-07-25T19:42:12.330Z,95062.72
2022-07-25T19:44:40.679Z,95074.88
2022-07-25T19:47:11.881Z,95083.53
2022-07-25T19:49:40.747Z,95082.84
2022-07-25T19:52:09.416Z,95094.75
2022-07-25T19:54:37.572Z,95105.81
2022-07-25T19:57:06.165Z,95104.69
2022-07-25T19:59:35.661Z,95116.13
2022-07-25T20:02:04.332Z,95114.41
2022-07-25T20:04:32.383Z,95117.78
2022-07-25T20:07:02.267Z,95128.00
2022-07-25T20:09:30.521Z,95134.31
2022-07-25T20:11:58.818Z,95135.22
2022-07-25T20:14:26.859Z,95134.50
2022-07-25T20:16:56.243Z,95140.75
2022-07-25T20:19:24.807Z,95139.78
2022-07-25T20:21:52.805Z,95141.22
2022-07-25T20:24:21.871Z,95143.88
2022-07-25T20:26:50.272Z,95151.97
2022-07-25T20:29:18.403Z,95150.47
2022-07-25T20:31:46.703Z,95150.53
2022-07-25T20:34:16.961Z,95154.06
2022-07-25T20:36:47.800Z,95163.19
2022-07-25T20:39:15.954Z,95159.13
2022-07-25T20:41:44.669Z,95158.78
2022-07-25T20:44:12.818Z,95168.94
2022-07-25T20:46:40.932Z,95169.06
2022-07-25T20:49:09.808Z,95167.13
2022-07-25T20:51:40.900Z,95167.00
2022-07-25T20:54:09.487Z,95163.81
2022-07-25T20:56:37.476Z,95162.38
2022-07-25T20:59:05.704Z,95163.69
2022-07-25T21:01:34.109Z,95158.69
2022-07-25T21:04:07.021Z,95167.28
2022-07-25T21:06:36.917Z,95177.06
2022-07-25T21:09:06.936Z,95178.19
2022-07-25T21:11:36.111Z,95178.25
2022-07-25T21:14:04.825Z,95190.94
2022-07-25T21:16:34.029Z,95184.63
2022-07-25T21:19:02.076Z,95188.13
2022-07-25T21:21:30.172Z,95196.81
2022-07-25T21:23:58.153Z,95195.69
2022-07-25T21:26:27.938Z,95194.38
2022-07-25T21:28:55.945Z,95194.19
2022-07-25T21:31:24.104Z,95199.53
2022-07-25T21:33:52.191Z,95204.56
2022-07-25T21:36:20.465Z,95208.34
2022-07-25T21:38:48.703Z,95196.81
2022-07-25T21:41:16.655Z,95207.97
2022-07-25T21:43:46.618Z,95207.97
2022-07-25T21:46:14.750Z,95211.16
2022-07-25T21:49:01.086Z,95211.81
2022-07-25T21:51:40.399Z,95211.22
2022-07-25T21:54:09.327Z,95209.16
2022-07-25T21:56:37.612Z,95215.31
2022-07-25T21:59:07.379Z,95218.47
2022-07-25T22:01:35.762Z,95215.03
2022-07-25T22:04:04.144Z,95212.66
2022-07-25T22:06:32.250Z,95219.75
2022-07-25T22:09:00.279Z,95223.16
2022-07-25T22:11:43.017Z,95220.66
2022-07-25T22:14:16.948Z,95223.16
2022-07-25T22:16:45.065Z,95218.81
2022-07-25T22:19:13.158Z,95230.75
2022-07-25T22:21:41.643Z,95232.19
2022-07-25T22:24:10.595Z,95235.34
2022-07-25T22:26:38.733Z,95240.84
2022-07-25T22:29:07.080Z,95242.59
2022-07-25T22:31:38.735Z,95247.44
2022-07-25T22:34:07.147Z,95248.66
2022-07-25T22:36:35.254Z,95250.44
2022-07-25T22:39:03.331Z,95248.38
2022-07-25T22:41:31.296Z,95253.09
2022-07-25T22:44:00.093Z,95250.56
2022-07-25T22:46:29.103Z,95251.00
2022-07-25T22:48:59.723Z,95254.97
2022-07-25T22:51:29.056Z,95257.13
2022-07-25T22:53:57.651Z,95269.72
2022-07-25T22:56:26.189Z,95272.56
2022-07-25T22:58:55.076Z,95267.53
2022-07-25T23:01:23.844Z,95268.94
2022-07-25T23:03:51.946Z,95267.72
2022-07-25T23:06:22.262Z,95271.75
2022-07-25T23:08:51.101Z,95271.13
2022-07-25T23:11:19.338Z,95275.72
2022-07-25T23:13:47.380Z,95274.16
2022-07-25T23:16:15.548Z,95275.28
2022-07-25T23:18:43.714Z,95275.59
2022-07-25T23:21:12.295Z,95280.47
2022-07-25T23:23:41.615Z,95272.78
2022-07-25T23:26:09.603Z,95284.88
2022-07-25T23:28:37.735Z,95287.66
2022-07-25T23:31:06.057Z,95291.28
2022-07-25T23:33:34.170Z,95291.00
2022-07-25T23:36:02.347Z,95293.56
2022-07-25T23:38:30.457Z,95291.38
2022-07-25T23:40:59.870Z,95285.09
2022-07-25T23:43:57.553Z,95290.63
2022-07-25T23:46:15.792Z,95284.63
2022-07-25T23:48:46.248Z,95289.25
2022-07-25T23:51:16.570Z,95287.88
2022-07-25T23:53:44.642Z,95290.47
2022-07-25T23:56:20.248Z,95282.94
2022-07-25T23:58:50.080Z,95285.47
